RYR448 EIDW-EGGP
Flight info
| Callsign | RYR448 |
|---|---|
| Flight time | 0h 40m |
| Altitude | 19000 |
| Route | BOFUM3J BOFUM |
| Aircraft | B38M/M-SDE1FGHILORVWXY/HB1 |
Departure
| Time | 2026-05-04 20:03 |
|---|---|
| Airport | Dublin Airport (EIDW) |
Arrival
| Time | 2026-05-04 20:44 |
|---|---|
| Airport | Liverpool John Lennon Airport (EGGP) |
| Time | Latitude | Longitude | Altitude | Speed | Heading |
|---|---|---|---|---|---|
| 2026-05-04 19:28 | 53.43109 | -6.24983 | 213 ft | 0 kts | 185° |
| 2026-05-04 19:54 | 53.43116 | -6.24982 | 218 ft | 2 kts | 185° |
| 2026-05-04 19:54 | 53.43136 | -6.24979 | 217 ft | 3 kts | 185° |
| 2026-05-04 19:54 | 53.43156 | -6.24976 | 213 ft | 3 kts | 185° |
| 2026-05-04 19:55 | 53.43176 | -6.24972 | 213 ft | 3 kts | 183° |
| 2026-05-04 19:55 | 53.43195 | -6.24975 | 213 ft | 3 kts | 156° |
| 2026-05-04 19:55 | 53.43210 | -6.24993 | 213 ft | 3 kts | 126° |
| 2026-05-04 19:55 | 53.43218 | -6.25021 | 213 ft | 2 kts | 98° |
| 2026-05-04 19:56 | 53.43219 | -6.25039 | 213 ft | 2 kts | 95° |
| 2026-05-04 19:56 | 53.43220 | -6.25065 | 213 ft | 1 kts | 95° |
| 2026-05-04 19:56 | 53.43220 | -6.25067 | 213 ft | 0 kts | 95° |
| 2026-05-04 19:58 | 53.43219 | -6.25047 | 213 ft | 4 kts | 95° |
| 2026-05-04 19:58 | 53.43214 | -6.24950 | 222 ft | 11 kts | 95° |
| 2026-05-04 19:59 | 53.43206 | -6.24805 | 213 ft | 13 kts | 96° |
| 2026-05-04 19:59 | 53.43197 | -6.24637 | 213 ft | 15 kts | 95° |
| 2026-05-04 19:59 | 53.43195 | -6.24451 | 213 ft | 15 kts | 65° |
| 2026-05-04 19:59 | 53.43281 | -6.24409 | 217 ft | 14 kts | 2° |
| 2026-05-04 20:00 | 53.43347 | -6.24453 | 216 ft | 8 kts | 287° |
| 2026-05-04 20:00 | 53.43364 | -6.24548 | 219 ft | 9 kts | 311° |
| 2026-05-04 20:00 | 53.43407 | -6.24563 | 218 ft | 6 kts | 4° |
| 2026-05-04 20:00 | 53.43455 | -6.24557 | 218 ft | 7 kts | 4° |
| 2026-05-04 20:01 | 53.43497 | -6.24552 | 224 ft | 6 kts | 4° |
| 2026-05-04 20:01 | 53.43528 | -6.24561 | 222 ft | 1 kts | 316° |
| 2026-05-04 20:01 | 53.43528 | -6.24573 | 220 ft | 2 kts | 261° |
| 2026-05-04 20:01 | 53.43526 | -6.24602 | 223 ft | 1 kts | 275° |
| 2026-05-04 20:02 | 53.43527 | -6.24622 | 219 ft | 3 kts | 275° |
| 2026-05-04 20:02 | 53.43529 | -6.24667 | 223 ft | 5 kts | 275° |
| 2026-05-04 20:02 | 53.43535 | -6.24768 | 215 ft | 21 kts | 275° |
| 2026-05-04 20:02 | 53.43575 | -6.25479 | 220 ft | 100 kts | 275° |
| 2026-05-04 20:03 | 53.43660 | -6.27034 | 220 ft | 163 kts | 275° |
| 2026-05-04 20:03 | 53.43775 | -6.28997 | 837 ft | 168 kts | 276° |
| 2026-05-04 20:03 | 53.43989 | -6.30903 | 1707 ft | 169 kts | 299° |
| 2026-05-04 20:03 | 53.44766 | -6.32313 | 2404 ft | 174 kts | 325° |
| 2026-05-04 20:04 | 53.45819 | -6.33581 | 2926 ft | 198 kts | 324° |
| 2026-05-04 20:04 | 53.47077 | -6.34711 | 3644 ft | 208 kts | 345° |
| 2026-05-04 20:04 | 53.48567 | -6.34815 | 4382 ft | 227 kts | 11° |
| 2026-05-04 20:04 | 53.50029 | -6.33548 | 4999 ft | 252 kts | 41° |
| 2026-05-04 20:05 | 53.50958 | -6.30940 | 5619 ft | 275 kts | 75° |
| 2026-05-04 20:05 | 53.51059 | -6.27701 | 6532 ft | 280 kts | 88° |
| 2026-05-04 20:05 | 53.51155 | -6.24408 | 7405 ft | 285 kts | 85° |
| 2026-05-04 20:05 | 53.51281 | -6.21062 | 8389 ft | 287 kts | 85° |
| 2026-05-04 20:06 | 53.51407 | -6.17693 | 9350 ft | 290 kts | 85° |
| 2026-05-04 20:06 | 53.51534 | -6.14288 | 10268 ft | 294 kts | 85° |
| 2026-05-04 20:06 | 53.51671 | -6.10755 | 10793 ft | 311 kts | 85° |
| 2026-05-04 20:06 | 53.51825 | -6.07003 | 11207 ft | 330 kts | 85° |
| 2026-05-04 20:07 | 53.51980 | -6.03125 | 11744 ft | 343 kts | 85° |
| 2026-05-04 20:07 | 53.52134 | -5.99094 | 12550 ft | 347 kts | 86° |
| 2026-05-04 20:07 | 53.52278 | -5.95029 | 13356 ft | 352 kts | 86° |
| 2026-05-04 20:07 | 53.52422 | -5.90881 | 14128 ft | 356 kts | 86° |
| 2026-05-04 20:08 | 53.52563 | -5.86711 | 14876 ft | 359 kts | 86° |
| 2026-05-04 20:08 | 53.52703 | -5.82498 | 15650 ft | 362 kts | 86° |
| 2026-05-04 20:08 | 53.52842 | -5.78252 | 16403 ft | 365 kts | 86° |
| 2026-05-04 20:08 | 53.52981 | -5.73977 | 17146 ft | 368 kts | 86° |
| 2026-05-04 20:09 | 53.53118 | -5.69658 | 17885 ft | 371 kts | 86° |
| 2026-05-04 20:09 | 53.53255 | -5.65322 | 18568 ft | 374 kts | 86° |
| 2026-05-04 20:09 | 53.53391 | -5.60930 | 19168 ft | 377 kts | 86° |
| 2026-05-04 20:09 | 53.53525 | -5.56565 | 19743 ft | 380 kts | 86° |
| 2026-05-04 20:10 | 53.53660 | -5.52093 | 20116 ft | 384 kts | 86° |
| 2026-05-04 20:10 | 53.53627 | -5.47622 | 20355 ft | 383 kts | 92° |
| 2026-05-04 20:10 | 53.53504 | -5.43138 | 20603 ft | 384 kts | 91° |
| 2026-05-04 20:10 | 53.53395 | -5.38649 | 20852 ft | 385 kts | 91° |
| 2026-05-04 20:11 | 53.53228 | -5.34135 | 21062 ft | 389 kts | 93° |
| 2026-05-04 20:11 | 53.53044 | -5.29549 | 21094 ft | 396 kts | 93° |
| 2026-05-04 20:11 | 53.52861 | -5.24916 | 21091 ft | 397 kts | 93° |
| 2026-05-04 20:11 | 53.52679 | -5.20282 | 21091 ft | 398 kts | 93° |
| 2026-05-04 20:12 | 53.52495 | -5.15647 | 21091 ft | 397 kts | 93° |
| 2026-05-04 20:12 | 53.52309 | -5.11003 | 21090 ft | 397 kts | 93° |
| 2026-05-04 20:12 | 53.52122 | -5.06369 | 21089 ft | 397 kts | 93° |
| 2026-05-04 20:12 | 53.51933 | -5.01734 | 21085 ft | 394 kts | 93° |
| 2026-05-04 20:13 | 53.51749 | -4.97286 | 21101 ft | 378 kts | 93° |
| 2026-05-04 20:13 | 53.51566 | -4.92881 | 20943 ft | 368 kts | 93° |
| 2026-05-04 20:13 | 53.51391 | -4.88698 | 20602 ft | 363 kts | 93° |
| 2026-05-04 20:13 | 53.51212 | -4.84472 | 20208 ft | 361 kts | 94° |
| 2026-05-04 20:14 | 53.51043 | -4.80505 | 19844 ft | 358 kts | 94° |
| 2026-05-04 20:14 | 53.50864 | -4.76346 | 19467 ft | 356 kts | 94° |
| 2026-05-04 20:14 | 53.50685 | -4.72216 | 19093 ft | 353 kts | 94° |
| 2026-05-04 20:14 | 53.50506 | -4.68110 | 18719 ft | 351 kts | 94° |
| 2026-05-04 20:15 | 53.50326 | -4.64029 | 18348 ft | 349 kts | 94° |
| 2026-05-04 20:15 | 53.50146 | -4.59965 | 17928 ft | 347 kts | 94° |
| 2026-05-04 20:15 | 53.49964 | -4.55928 | 17543 ft | 344 kts | 95° |
| 2026-05-04 20:15 | 53.49784 | -4.51933 | 17177 ft | 341 kts | 95° |
| 2026-05-04 20:16 | 53.49605 | -4.47974 | 16820 ft | 338 kts | 95° |
| 2026-05-04 20:16 | 53.49425 | -4.44041 | 16460 ft | 336 kts | 95° |
| 2026-05-04 20:16 | 53.49245 | -4.40148 | 16107 ft | 333 kts | 95° |
| 2026-05-04 20:16 | 53.49065 | -4.36256 | 15744 ft | 337 kts | 95° |
| 2026-05-04 20:17 | 53.48880 | -4.32313 | 15377 ft | 341 kts | 95° |
| 2026-05-04 20:17 | 53.48694 | -4.28333 | 15025 ft | 342 kts | 95° |
| 2026-05-04 20:17 | 53.48508 | -4.24410 | 14672 ft | 341 kts | 95° |
| 2026-05-04 20:17 | 53.48319 | -4.20455 | 14308 ft | 339 kts | 95° |
| 2026-05-04 20:18 | 53.48130 | -4.16526 | 13953 ft | 337 kts | 95° |
| 2026-05-04 20:18 | 53.47941 | -4.12607 | 13554 ft | 335 kts | 95° |
| 2026-05-04 20:18 | 53.47752 | -4.08721 | 13173 ft | 333 kts | 95° |
| 2026-05-04 20:18 | 53.47563 | -4.04867 | 12813 ft | 330 kts | 95° |
| 2026-05-04 20:19 | 53.47374 | -4.01047 | 12464 ft | 327 kts | 95° |
| 2026-05-04 20:19 | 53.47186 | -3.97258 | 12112 ft | 324 kts | 95° |
| 2026-05-04 20:19 | 53.46999 | -3.93500 | 11760 ft | 322 kts | 95° |
| 2026-05-04 20:19 | 53.46811 | -3.89766 | 11414 ft | 320 kts | 95° |
| 2026-05-04 20:20 | 53.46623 | -3.86052 | 11057 ft | 318 kts | 95° |
| 2026-05-04 20:20 | 53.46435 | -3.82360 | 10716 ft | 316 kts | 95° |
| 2026-05-04 20:20 | 53.46250 | -3.78747 | 10548 ft | 308 kts | 95° |
| 2026-05-04 20:20 | 53.46069 | -3.75246 | 10399 ft | 299 kts | 95° |
| 2026-05-04 20:21 | 53.45891 | -3.71814 | 10261 ft | 291 kts | 95° |
| 2026-05-04 20:21 | 53.45717 | -3.68480 | 10119 ft | 283 kts | 95° |
| 2026-05-04 20:21 | 53.45377 | -3.61990 | 9559 ft | 277 kts | 95° |
| 2026-05-04 20:22 | 53.45207 | -3.58785 | 9248 ft | 275 kts | 95° |
| 2026-05-04 20:22 | 53.45209 | -3.55581 | 8946 ft | 273 kts | 85° |
| 2026-05-04 20:22 | 53.45373 | -3.52413 | 8662 ft | 271 kts | 84° |
| 2026-05-04 20:22 | 53.45549 | -3.49289 | 8380 ft | 269 kts | 84° |
| 2026-05-04 20:23 | 53.45727 | -3.46137 | 8101 ft | 273 kts | 84° |
| 2026-05-04 20:23 | 53.45908 | -3.42939 | 7813 ft | 278 kts | 84° |
| 2026-05-04 20:23 | 53.46091 | -3.39705 | 7541 ft | 279 kts | 84° |
| 2026-05-04 20:23 | 53.46272 | -3.36495 | 7414 ft | 271 kts | 84° |
| 2026-05-04 20:24 | 53.46446 | -3.33389 | 7286 ft | 263 kts | 84° |
| 2026-05-04 20:24 | 53.46601 | -3.30329 | 6962 ft | 264 kts | 88° |
| 2026-05-04 20:24 | 53.46637 | -3.27301 | 6698 ft | 262 kts | 90° |
| 2026-05-04 20:24 | 53.46654 | -3.24247 | 6393 ft | 261 kts | 90° |
| 2026-05-04 20:25 | 53.46667 | -3.21204 | 6103 ft | 259 kts | 90° |
| 2026-05-04 20:25 | 53.46676 | -3.18186 | 5801 ft | 258 kts | 89° |
| 2026-05-04 20:25 | 53.46685 | -3.15181 | 5520 ft | 256 kts | 90° |
| 2026-05-04 20:25 | 53.46691 | -3.12204 | 5217 ft | 255 kts | 90° |
| 2026-05-04 20:26 | 53.46697 | -3.09234 | 4959 ft | 253 kts | 90° |
| 2026-05-04 20:26 | 53.46671 | -3.06279 | 4650 ft | 253 kts | 93° |
| 2026-05-04 20:26 | 53.46534 | -3.03347 | 4366 ft | 251 kts | 95° |
| 2026-05-04 20:26 | 53.46379 | -3.00439 | 4091 ft | 250 kts | 95° |
| 2026-05-04 20:27 | 53.46216 | -2.97533 | 3804 ft | 249 kts | 95° |
| 2026-05-04 20:27 | 53.46049 | -2.94649 | 3549 ft | 247 kts | 95° |
| 2026-05-04 20:27 | 53.45880 | -2.91816 | 3389 ft | 241 kts | 95° |
| 2026-05-04 20:27 | 53.45712 | -2.89046 | 3215 ft | 237 kts | 95° |
| 2026-05-04 20:28 | 53.45543 | -2.86299 | 3053 ft | 237 kts | 95° |
| 2026-05-04 20:28 | 53.45367 | -2.83558 | 2906 ft | 236 kts | 96° |
| 2026-05-04 20:28 | 53.44968 | -2.80898 | 2777 ft | 236 kts | 108° |
| 2026-05-04 20:28 | 53.44395 | -2.78317 | 2660 ft | 236 kts | 110° |
| 2026-05-04 20:29 | 53.43818 | -2.75793 | 2575 ft | 227 kts | 110° |
| 2026-05-04 20:29 | 53.43265 | -2.73403 | 2478 ft | 218 kts | 110° |
| 2026-05-04 20:29 | 53.42721 | -2.71059 | 2360 ft | 214 kts | 110° |
| 2026-05-04 20:29 | 53.42175 | -2.68749 | 2248 ft | 210 kts | 110° |
| 2026-05-04 20:30 | 53.41651 | -2.66546 | 2149 ft | 197 kts | 110° |
| 2026-05-04 20:30 | 53.41001 | -2.64574 | 1923 ft | 193 kts | 134° |
| 2026-05-04 20:30 | 53.40319 | -2.63621 | 1846 ft | 187 kts | 144° |
| 2026-05-04 20:30 | 53.39258 | -2.62387 | 1814 ft | 189 kts | 144° |
| 2026-05-04 20:31 | 53.38172 | -2.61148 | 1805 ft | 189 kts | 145° |
| 2026-05-04 20:31 | 53.36971 | -2.60324 | 1750 ft | 187 kts | 178° |
| 2026-05-04 20:31 | 53.35737 | -2.60788 | 1750 ft | 182 kts | 215° |
| 2026-05-04 20:31 | 53.34921 | -2.62322 | 1781 ft | 176 kts | 247° |
| 2026-05-04 20:32 | 53.34466 | -2.64225 | 1841 ft | 176 kts | 258° |
| 2026-05-04 20:32 | 53.34233 | -2.66214 | 1821 ft | 173 kts | 268° |
| 2026-05-04 20:32 | 53.34132 | -2.68223 | 1805 ft | 173 kts | 269° |
| 2026-05-04 20:32 | 53.34042 | -2.70225 | 1658 ft | 171 kts | 269° |
| 2026-05-04 20:33 | 53.33957 | -2.72104 | 1468 ft | 153 kts | 269° |
| 2026-05-04 20:33 | 53.33877 | -2.73832 | 1273 ft | 148 kts | 269° |
| 2026-05-04 20:33 | 53.33797 | -2.75541 | 1070 ft | 148 kts | 269° |
| 2026-05-04 20:33 | 53.33712 | -2.77244 | 918 ft | 146 kts | 268° |
| 2026-05-04 20:34 | 53.33634 | -2.78927 | 669 ft | 143 kts | 268° |
| 2026-05-04 20:34 | 53.33566 | -2.80620 | 464 ft | 146 kts | 268° |
| 2026-05-04 20:34 | 53.33487 | -2.82344 | 269 ft | 166 kts | 268° |
| 2026-05-04 20:34 | 53.33403 | -2.84361 | 1112 ft | 175 kts | 270° |
| 2026-05-04 20:35 | 53.33326 | -2.86400 | 2114 ft | 178 kts | 269° |
| 2026-05-04 20:35 | 53.33245 | -2.88552 | 2742 ft | 188 kts | 269° |
| 2026-05-04 20:35 | 53.33217 | -2.90771 | 3053 ft | 197 kts | 280° |
| 2026-05-04 20:35 | 53.33813 | -2.92866 | 2954 ft | 207 kts | 316° |
| 2026-05-04 20:36 | 53.35074 | -2.94032 | 2981 ft | 213 kts | 349° |
| 2026-05-04 20:36 | 53.36542 | -2.93803 | 3010 ft | 218 kts | 22° |
| 2026-05-04 20:36 | 53.37732 | -2.92202 | 3018 ft | 226 kts | 54° |
| 2026-05-04 20:36 | 53.38263 | -2.89719 | 3036 ft | 231 kts | 81° |
| 2026-05-04 20:37 | 53.38397 | -2.87021 | 3023 ft | 232 kts | 84° |
| 2026-05-04 20:37 | 53.38491 | -2.84314 | 2720 ft | 233 kts | 85° |
| 2026-05-04 20:37 | 53.38577 | -2.81618 | 2498 ft | 230 kts | 85° |
| 2026-05-04 20:37 | 53.38656 | -2.78979 | 2251 ft | 228 kts | 85° |
| 2026-05-04 20:38 | 53.38726 | -2.76370 | 2107 ft | 220 kts | 85° |
| 2026-05-04 20:38 | 53.38789 | -2.73842 | 1962 ft | 213 kts | 85° |
| 2026-05-04 20:38 | 53.38838 | -2.71404 | 1842 ft | 208 kts | 85° |
| 2026-05-04 20:38 | 53.38880 | -2.68986 | 1775 ft | 207 kts | 84° |
| 2026-05-04 20:39 | 53.38924 | -2.66579 | 1774 ft | 207 kts | 85° |
| 2026-05-04 20:39 | 53.38970 | -2.64159 | 1797 ft | 208 kts | 84° |
| 2026-05-04 20:39 | 53.38848 | -2.61761 | 1769 ft | 205 kts | 109° |
| 2026-05-04 20:39 | 53.38020 | -2.59967 | 1783 ft | 194 kts | 146° |
| 2026-05-04 20:40 | 53.36762 | -2.59304 | 1773 ft | 191 kts | 182° |
| 2026-05-04 20:40 | 53.35530 | -2.59944 | 1785 ft | 186 kts | 219° |
| 2026-05-04 20:40 | 53.34754 | -2.61598 | 1794 ft | 181 kts | 250° |
| 2026-05-04 20:40 | 53.34384 | -2.63602 | 1815 ft | 180 kts | 263° |
| 2026-05-04 20:41 | 53.34240 | -2.65667 | 1814 ft | 178 kts | 269° |
| 2026-05-04 20:41 | 53.34155 | -2.67731 | 1797 ft | 178 kts | 269° |
| 2026-05-04 20:41 | 53.34065 | -2.69766 | 1705 ft | 176 kts | 269° |
| 2026-05-04 20:41 | 53.33973 | -2.71756 | 1503 ft | 163 kts | 269° |
| 2026-05-04 20:42 | 53.33889 | -2.73540 | 1301 ft | 147 kts | 269° |
| 2026-05-04 20:42 | 53.33815 | -2.75234 | 1098 ft | 147 kts | 269° |
| 2026-05-04 20:42 | 53.33744 | -2.76949 | 926 ft | 147 kts | 268° |
| 2026-05-04 20:42 | 53.33656 | -2.78656 | 702 ft | 146 kts | 268° |
| 2026-05-04 20:43 | 53.33571 | -2.80363 | 475 ft | 149 kts | 268° |
| 2026-05-04 20:43 | 53.33498 | -2.82070 | 272 ft | 145 kts | 268° |
| 2026-05-04 20:43 | 53.33420 | -2.83726 | 98 ft | 139 kts | 268° |
| 2026-05-04 20:43 | 53.33358 | -2.85096 | 92 ft | 87 kts | 265° |
| 2026-05-04 20:44 | 53.33322 | -2.85878 | 92 ft | 49 kts | 265° |
| 2026-05-04 20:44 | 53.33305 | -2.86274 | 91 ft | 28 kts | 266° |
| 2026-05-04 20:44 | 53.33378 | -2.86423 | 92 ft | 15 kts | 351° |
| 2026-05-04 20:44 | 53.33462 | -2.86380 | 91 ft | 11 kts | 75° |
| 2026-05-04 20:45 | 53.33470 | -2.86249 | 91 ft | 13 kts | 84° |
| 2026-05-04 20:45 | 53.33478 | -2.86091 | 91 ft | 15 kts | 85° |
| 2026-05-04 20:45 | 53.33489 | -2.85932 | 93 ft | 11 kts | 67° |
| 2026-05-04 20:45 | 53.33511 | -2.85921 | 91 ft | 3 kts | 337° |
| 2026-05-04 20:46 | 53.33546 | -2.85935 | 91 ft | 8 kts | 353° |
| 2026-05-04 20:46 | 53.33590 | -2.85924 | 92 ft | 4 kts | 62° |
| 2026-05-04 20:46 | 53.33594 | -2.85880 | 93 ft | 6 kts | 85° |
| 2026-05-04 20:46 | 53.33602 | -2.85799 | 93 ft | 6 kts | 59° |
| 2026-05-04 20:47 | 53.33618 | -2.85792 | 94 ft | 3 kts | 359° |
| 2026-05-04 20:47 | 53.33641 | -2.85793 | 91 ft | 2 kts | 355° |
| 2026-05-04 20:47 | 53.33652 | -2.85795 | 91 ft | 0 kts | 355° |